sensor_id;sensor_type;location;lat;lon;timestamp;P1;durP1;ratioP1;P2;durP2;ratioP2
59659;SDS011;45534;52.690;6.268;2022-08-25T00:01:35;23.25;;;16.27;;
59659;SDS011;45534;52.690;6.268;2022-08-25T00:04:03;18.70;;;16.90;;
59659;SDS011;45534;52.690;6.268;2022-08-25T00:06:31;20.05;;;15.75;;
59659;SDS011;45534;52.690;6.268;2022-08-25T00:08:57;18.02;;;16.08;;
59659;SDS011;45534;52.690;6.268;2022-08-25T00:11:24;20.00;;;17.95;;
59659;SDS011;45534;52.690;6.268;2022-08-25T00:13:53;18.55;;;16.88;;
59659;SDS011;45534;52.690;6.268;2022-08-25T00:16:21;20.48;;;18.58;;
59659;SDS011;45534;52.690;6.268;2022-08-25T00:18:49;20.90;;;18.75;;
59659;SDS011;45534;52.690;6.268;2022-08-25T00:21:18;21.08;;;18.80;;
59659;SDS011;45534;52.690;6.268;2022-08-25T00:23:44;19.27;;;17.27;;
59659;SDS011;45534;52.690;6.268;2022-08-25T00:26:10;16.83;;;15.23;;
59659;SDS011;45534;52.690;6.268;2022-08-25T00:28:36;18.00;;;16.50;;
59659;SDS011;45534;52.690;6.268;2022-08-25T00:31:04;18.02;;;16.38;;
59659;SDS011;45534;52.690;6.268;2022-08-25T00:33:31;20.35;;;17.75;;
59659;SDS011;45534;52.690;6.268;2022-08-25T00:35:57;17.63;;;15.85;;
59659;SDS011;45534;52.690;6.268;2022-08-25T00:38:24;21.58;;;14.45;;
59659;SDS011;45534;52.690;6.268;2022-08-25T00:40:51;17.83;;;15.25;;
59659;SDS011;45534;52.690;6.268;2022-08-25T00:44:12;16.17;;;14.68;;
59659;SDS011;45534;52.690;6.268;2022-08-25T00:46:41;14.82;;;13.48;;
59659;SDS011;45534;52.690;6.268;2022-08-25T00:49:12;14.70;;;12.98;;
59659;SDS011;45534;52.690;6.268;2022-08-25T00:51:43;13.23;;;11.93;;
59659;SDS011;45534;52.690;6.268;2022-08-25T00:54:18;13.02;;;11.73;;
59659;SDS011;45534;52.690;6.268;2022-08-25T00:56:48;13.32;;;11.93;;
59659;SDS011;45534;52.690;6.268;2022-08-25T00:59:17;15.30;;;11.55;;
59659;SDS011;45534;52.690;6.268;2022-08-25T01:01:45;15.30;;;10.90;;
59659;SDS011;45534;52.690;6.268;2022-08-25T01:04:12;13.00;;;11.70;;
59659;SDS011;45534;52.690;6.268;2022-08-25T01:06:38;13.93;;;12.07;;
59659;SDS011;45534;52.690;6.268;2022-08-25T01:09:07;13.73;;;11.10;;
59659;SDS011;45534;52.690;6.268;2022-08-25T01:11:33;11.90;;;10.70;;
59659;SDS011;45534;52.690;6.268;2022-08-25T01:13:59;11.82;;;10.43;;
59659;SDS011;45534;52.690;6.268;2022-08-25T01:16:30;14.50;;;11.07;;
59659;SDS011;45534;52.690;6.268;2022-08-25T01:19:00;12.18;;;9.85;;
59659;SDS011;45534;52.690;6.268;2022-08-25T01:21:27;13.50;;;10.70;;
59659;SDS011;45534;52.690;6.268;2022-08-25T01:23:55;18.63;;;10.75;;
59659;SDS011;45534;52.690;6.268;2022-08-25T01:26:28;13.25;;;10.40;;
59659;SDS011;45534;52.690;6.268;2022-08-25T01:28:56;12.88;;;9.40;;
59659;SDS011;45534;52.690;6.268;2022-08-25T01:31:43;13.98;;;9.60;;
59659;SDS011;45534;52.690;6.268;2022-08-25T01:34:10;10.93;;;9.88;;
59659;SDS011;45534;52.690;6.268;2022-08-25T01:36:36;22.70;;;10.20;;
59659;SDS011;45534;52.690;6.268;2022-08-25T01:39:04;16.17;;;9.10;;
59659;SDS011;45534;52.690;6.268;2022-08-25T01:41:34;13.07;;;9.10;;
59659;SDS011;45534;52.690;6.268;2022-08-25T01:44:15;12.50;;;9.45;;
59659;SDS011;45534;52.690;6.268;2022-08-25T01:46:41;13.88;;;8.82;;
59659;SDS011;45534;52.690;6.268;2022-08-25T01:49:07;12.88;;;9.27;;
59659;SDS011;45534;52.690;6.268;2022-08-25T01:51:38;15.77;;;8.57;;
59659;SDS011;45534;52.690;6.268;2022-08-25T01:54:08;10.13;;;8.75;;
59659;SDS011;45534;52.690;6.268;2022-08-25T01:56:34;5.80;;;4.70;;
59659;SDS011;45534;52.690;6.268;2022-08-25T01:59:00;12.80;;;6.25;;
59659;SDS011;45534;52.690;6.268;2022-08-25T02:01:26;15.38;;;8.73;;
59659;SDS011;45534;52.690;6.268;2022-08-25T02:03:52;10.68;;;8.68;;
59659;SDS011;45534;52.690;6.268;2022-08-25T02:06:21;12.80;;;8.32;;
59659;SDS011;45534;52.690;6.268;2022-08-25T02:08:53;11.40;;;9.43;;
59659;SDS011;45534;52.690;6.268;2022-08-25T02:11:22;11.95;;;8.70;;
59659;SDS011;45534;52.690;6.268;2022-08-25T02:13:48;10.48;;;9.00;;
59659;SDS011;45534;52.690;6.268;2022-08-25T02:16:20;11.88;;;8.23;;
59659;SDS011;45534;52.690;6.268;2022-08-25T02:18:49;12.77;;;8.10;;
59659;SDS011;45534;52.690;6.268;2022-08-25T02:21:15;23.13;;;8.73;;
59659;SDS011;45534;52.690;6.268;2022-08-25T02:23:41;15.75;;;8.10;;
59659;SDS011;45534;52.690;6.268;2022-08-25T02:26:08;15.43;;;9.10;;
59659;SDS011;45534;52.690;6.268;2022-08-25T02:28:34;10.52;;;8.63;;
59659;SDS011;45534;52.690;6.268;2022-08-25T02:31:01;15.98;;;8.88;;
59659;SDS011;45534;52.690;6.268;2022-08-25T02:33:30;15.05;;;8.65;;
59659;SDS011;45534;52.690;6.268;2022-08-25T02:35:59;10.13;;;8.10;;
59659;SDS011;45534;52.690;6.268;2022-08-25T02:38:26;18.02;;;8.85;;
59659;SDS011;45534;52.690;6.268;2022-08-25T02:40:53;9.93;;;8.75;;
59659;SDS011;45534;52.690;6.268;2022-08-25T02:43:22;10.13;;;9.00;;
59659;SDS011;45534;52.690;6.268;2022-08-25T02:45:50;5.78;;;4.40;;
59659;SDS011;45534;52.690;6.268;2022-08-25T02:48:16;9.73;;;5.65;;
59659;SDS011;45534;52.690;6.268;2022-08-25T02:50:46;9.15;;;6.10;;
59659;SDS011;45534;52.690;6.268;2022-08-25T02:53:12;7.15;;;4.72;;
59659;SDS011;45534;52.690;6.268;2022-08-25T02:55:38;17.10;;;8.63;;
59659;SDS011;45534;52.690;6.268;2022-08-25T02:58:04;9.52;;;7.43;;
59659;SDS011;45534;52.690;6.268;2022-08-25T03:00:30;10.98;;;8.60;;
59659;SDS011;45534;52.690;6.268;2022-08-25T03:02:56;10.32;;;8.00;;
59659;SDS011;45534;52.690;6.268;2022-08-25T03:05:21;6.00;;;4.72;;
59659;SDS011;45534;52.690;6.268;2022-08-25T03:07:47;5.43;;;4.15;;
59659;SDS011;45534;52.690;6.268;2022-08-25T03:10:14;8.75;;;4.50;;
59659;SDS011;45534;52.690;6.268;2022-08-25T03:12:42;11.15;;;8.15;;
59659;SDS011;45534;52.690;6.268;2022-08-25T03:15:10;10.65;;;8.43;;
59659;SDS011;45534;52.690;6.268;2022-08-25T03:17:39;10.13;;;5.47;;
59659;SDS011;45534;52.690;6.268;2022-08-25T03:20:05;5.75;;;4.78;;
59659;SDS011;45534;52.690;6.268;2022-08-25T03:22:31;5.32;;;4.30;;
59659;SDS011;45534;52.690;6.268;2022-08-25T03:24:57;17.17;;;9.25;;
59659;SDS011;45534;52.690;6.268;2022-08-25T03:27:41;13.85;;;8.07;;
59659;SDS011;45534;52.690;6.268;2022-08-25T03:30:07;13.13;;;8.60;;
59659;SDS011;45534;52.690;6.268;2022-08-25T03:32:33;15.20;;;7.70;;
59659;SDS011;45534;52.690;6.268;2022-08-25T03:34:59;11.80;;;8.00;;
59659;SDS011;45534;52.690;6.268;2022-08-25T03:37:26;12.57;;;8.07;;
59659;SDS011;45534;52.690;6.268;2022-08-25T03:39:52;12.82;;;8.60;;
59659;SDS011;45534;52.690;6.268;2022-08-25T03:42:17;15.73;;;7.30;;
59659;SDS011;45534;52.690;6.268;2022-08-25T03:44:43;12.32;;;8.20;;
59659;SDS011;45534;52.690;6.268;2022-08-25T03:47:09;6.55;;;4.50;;
59659;SDS011;45534;52.690;6.268;2022-08-25T03:49:35;9.43;;;7.82;;
59659;SDS011;45534;52.690;6.268;2022-08-25T03:52:01;12.48;;;7.47;;
59659;SDS011;45534;52.690;6.268;2022-08-25T03:54:26;6.38;;;4.63;;
59659;SDS011;45534;52.690;6.268;2022-08-25T03:56:53;7.28;;;4.75;;
59659;SDS011;45534;52.690;6.268;2022-08-25T03:59:19;7.90;;;4.53;;
59659;SDS011;45534;52.690;6.268;2022-08-25T04:01:46;5.57;;;5.03;;
59659;SDS011;45534;52.690;6.268;2022-08-25T04:04:13;12.63;;;6.38;;
59659;SDS011;45534;52.690;6.268;2022-08-25T04:06:40;6.53;;;4.93;;
59659;SDS011;45534;52.690;6.268;2022-08-25T04:09:07;9.77;;;4.53;;
59659;SDS011;45534;52.690;6.268;2022-08-25T04:11:33;7.35;;;3.90;;
59659;SDS011;45534;52.690;6.268;2022-08-25T04:13:59;6.15;;;3.85;;
59659;SDS011;45534;52.690;6.268;2022-08-25T04:16:27;10.45;;;4.65;;
59659;SDS011;45534;52.690;6.268;2022-08-25T04:18:55;10.48;;;8.15;;
59659;SDS011;45534;52.690;6.268;2022-08-25T04:21:23;10.68;;;7.53;;
59659;SDS011;45534;52.690;6.268;2022-08-25T04:23:50;14.00;;;8.88;;
59659;SDS011;45534;52.690;6.268;2022-08-25T04:26:19;10.73;;;8.10;;
59659;SDS011;45534;52.690;6.268;2022-08-25T04:28:48;11.20;;;8.20;;
59659;SDS011;45534;52.690;6.268;2022-08-25T04:31:15;6.05;;;4.50;;
59659;SDS011;45534;52.690;6.268;2022-08-25T04:33:42;8.40;;;4.90;;
59659;SDS011;45534;52.690;6.268;2022-08-25T04:36:09;10.85;;;8.65;;
59659;SDS011;45534;52.690;6.268;2022-08-25T04:38:38;9.45;;;8.40;;
59659;SDS011;45534;52.690;6.268;2022-08-25T04:41:06;7.30;;;4.18;;
59659;SDS011;45534;52.690;6.268;2022-08-25T04:43:33;12.52;;;8.57;;
59659;SDS011;45534;52.690;6.268;2022-08-25T04:46:04;12.68;;;8.50;;
59659;SDS011;45534;52.690;6.268;2022-08-25T04:48:31;8.82;;;5.80;;
59659;SDS011;45534;52.690;6.268;2022-08-25T04:50:57;7.28;;;5.72;;
59659;SDS011;45534;52.690;6.268;2022-08-25T04:53:23;7.25;;;4.82;;
59659;SDS011;45534;52.690;6.268;2022-08-25T04:55:48;8.55;;;5.15;;
59659;SDS011;45534;52.690;6.268;2022-08-25T04:58:15;11.32;;;7.65;;
59659;SDS011;45534;52.690;6.268;2022-08-25T05:00:41;13.13;;;8.85;;
59659;SDS011;45534;52.690;6.268;2022-08-25T05:03:08;13.60;;;9.15;;
59659;SDS011;45534;52.690;6.268;2022-08-25T05:05:37;7.85;;;4.60;;
59659;SDS011;45534;52.690;6.268;2022-08-25T05:08:03;10.95;;;5.90;;
59659;SDS011;45534;52.690;6.268;2022-08-25T05:10:30;10.15;;;8.07;;
59659;SDS011;45534;52.690;6.268;2022-08-25T05:13:02;43.65;;;6.43;;
59659;SDS011;45534;52.690;6.268;2022-08-25T05:15:28;7.38;;;5.63;;
59659;SDS011;45534;52.690;6.268;2022-08-25T05:18:12;12.32;;;9.20;;
59659;SDS011;45534;52.690;6.268;2022-08-25T05:20:38;6.45;;;4.55;;
59659;SDS011;45534;52.690;6.268;2022-08-25T05:23:04;8.10;;;5.00;;
59659;SDS011;45534;52.690;6.268;2022-08-25T05:25:30;13.20;;;8.10;;
59659;SDS011;45534;52.690;6.268;2022-08-25T05:27:56;8.13;;;5.07;;
59659;SDS011;45534;52.690;6.268;2022-08-25T05:30:22;8.15;;;5.35;;
59659;SDS011;45534;52.690;6.268;2022-08-25T05:32:48;13.23;;;8.77;;
59659;SDS011;45534;52.690;6.268;2022-08-25T05:35:14;6.53;;;3.97;;
59659;SDS011;45534;52.690;6.268;2022-08-25T05:37:40;13.43;;;8.82;;
59659;SDS011;45534;52.690;6.268;2022-08-25T05:40:06;5.68;;;4.00;;
59659;SDS011;45534;52.690;6.268;2022-08-25T05:42:33;9.55;;;4.95;;
59659;SDS011;45534;52.690;6.268;2022-08-25T05:44:59;13.52;;;8.43;;
59659;SDS011;45534;52.690;6.268;2022-08-25T05:47:25;13.88;;;9.35;;
59659;SDS011;45534;52.690;6.268;2022-08-25T05:49:51;25.52;;;9.38;;
59659;SDS011;45534;52.690;6.268;2022-08-25T05:52:17;8.02;;;4.47;;
59659;SDS011;45534;52.690;6.268;2022-08-25T05:54:42;7.13;;;4.53;;
59659;SDS011;45534;52.690;6.268;2022-08-25T05:57:08;7.65;;;4.45;;
59659;SDS011;45534;52.690;6.268;2022-08-25T05:59:34;7.65;;;6.25;;
59659;SDS011;45534;52.690;6.268;2022-08-25T06:01:59;5.75;;;4.57;;
59659;SDS011;45534;52.690;6.268;2022-08-25T06:04:44;8.48;;;5.70;;
59659;SDS011;45534;52.690;6.268;2022-08-25T06:07:10;8.18;;;4.05;;
59659;SDS011;45534;52.690;6.268;2022-08-25T06:09:36;18.27;;;6.00;;
59659;SDS011;45534;52.690;6.268;2022-08-25T06:12:03;11.82;;;8.75;;
59659;SDS011;45534;52.690;6.268;2022-08-25T06:14:29;16.45;;;8.70;;
59659;SDS011;45534;52.690;6.268;2022-08-25T06:16:55;9.93;;;8.90;;
59659;SDS011;45534;52.690;6.268;2022-08-25T06:19:21;10.07;;;9.07;;
59659;SDS011;45534;52.690;6.268;2022-08-25T06:21:47;5.32;;;4.65;;
59659;SDS011;45534;52.690;6.268;2022-08-25T06:24:13;6.68;;;5.32;;
59659;SDS011;45534;52.690;6.268;2022-08-25T06:26:39;7.63;;;4.65;;
59659;SDS011;45534;52.690;6.268;2022-08-25T06:29:04;9.85;;;4.60;;
59659;SDS011;45534;52.690;6.268;2022-08-25T06:31:30;13.52;;;8.35;;
59659;SDS011;45534;52.690;6.268;2022-08-25T06:33:56;16.98;;;9.30;;
59659;SDS011;45534;52.690;6.268;2022-08-25T06:36:22;5.57;;;5.07;;
59659;SDS011;45534;52.690;6.268;2022-08-25T06:38:48;30.13;;;6.72;;
59659;SDS011;45534;52.690;6.268;2022-08-25T06:41:14;6.65;;;4.85;;
59659;SDS011;45534;52.690;6.268;2022-08-25T06:43:40;9.25;;;6.18;;
59659;SDS011;45534;52.690;6.268;2022-08-25T06:46:07;12.75;;;7.43;;
59659;SDS011;45534;52.690;6.268;2022-08-25T06:48:34;18.33;;;8.00;;
59659;SDS011;45534;52.690;6.268;2022-08-25T06:51:04;12.45;;;8.30;;
59659;SDS011;45534;52.690;6.268;2022-08-25T06:53:34;24.73;;;9.73;;
59659;SDS011;45534;52.690;6.268;2022-08-25T06:56:00;6.80;;;5.47;;
59659;SDS011;45534;52.690;6.268;2022-08-25T06:58:26;11.48;;;7.68;;
59659;SDS011;45534;52.690;6.268;2022-08-25T07:00:52;14.32;;;8.57;;
59659;SDS011;45534;52.690;6.268;2022-08-25T07:03:18;12.60;;;7.75;;
59659;SDS011;45534;52.690;6.268;2022-08-25T07:05:53;19.08;;;9.27;;
59659;SDS011;45534;52.690;6.268;2022-08-25T07:08:20;12.13;;;8.23;;
59659;SDS011;45534;52.690;6.268;2022-08-25T07:10:47;12.35;;;8.70;;
59659;SDS011;45534;52.690;6.268;2022-08-25T07:13:14;12.85;;;8.68;;
59659;SDS011;45534;52.690;6.268;2022-08-25T07:15:40;13.20;;;7.88;;
59659;SDS011;45534;52.690;6.268;2022-08-25T07:18:07;17.58;;;7.85;;
59659;SDS011;45534;52.690;6.268;2022-08-25T07:20:35;15.65;;;7.45;;
59659;SDS011;45534;52.690;6.268;2022-08-25T07:23:01;12.25;;;7.97;;
59659;SDS011;45534;52.690;6.268;2022-08-25T07:25:27;11.55;;;7.88;;
59659;SDS011;45534;52.690;6.268;2022-08-25T07:27:53;14.13;;;8.00;;
59659;SDS011;45534;52.690;6.268;2022-08-25T07:30:19;15.35;;;7.43;;
59659;SDS011;45534;52.690;6.268;2022-08-25T07:32:45;10.93;;;8.23;;
59659;SDS011;45534;52.690;6.268;2022-08-25T07:35:10;14.80;;;8.13;;
59659;SDS011;45534;52.690;6.268;2022-08-25T07:37:40;13.63;;;8.00;;
59659;SDS011;45534;52.690;6.268;2022-08-25T07:40:11;12.75;;;7.20;;
59659;SDS011;45534;52.690;6.268;2022-08-25T07:42:40;17.42;;;8.77;;
59659;SDS011;45534;52.690;6.268;2022-08-25T07:45:06;12.27;;;7.90;;
59659;SDS011;45534;52.690;6.268;2022-08-25T07:47:34;9.98;;;6.85;;
59659;SDS011;45534;52.690;6.268;2022-08-25T07:49:59;13.43;;;6.68;;
59659;SDS011;45534;52.690;6.268;2022-08-25T07:52:25;14.27;;;7.47;;
59659;SDS011;45534;52.690;6.268;2022-08-25T07:54:52;9.65;;;6.72;;
59659;SDS011;45534;52.690;6.268;2022-08-25T07:57:19;11.05;;;7.10;;
59659;SDS011;45534;52.690;6.268;2022-08-25T07:59:46;17.30;;;7.57;;
59659;SDS011;45534;52.690;6.268;2022-08-25T08:02:12;10.45;;;6.53;;
59659;SDS011;45534;52.690;6.268;2022-08-25T08:04:38;11.32;;;7.05;;
59659;SDS011;45534;52.690;6.268;2022-08-25T08:07:04;9.57;;;5.70;;
59659;SDS011;45534;52.690;6.268;2022-08-25T08:09:31;12.93;;;6.43;;
59659;SDS011;45534;52.690;6.268;2022-08-25T08:11:56;13.32;;;6.78;;
59659;SDS011;45534;52.690;6.268;2022-08-25T08:14:22;12.68;;;6.60;;
59659;SDS011;45534;52.690;6.268;2022-08-25T08:16:48;10.30;;;6.07;;
59659;SDS011;45534;52.690;6.268;2022-08-25T08:19:14;13.63;;;6.53;;
59659;SDS011;45534;52.690;6.268;2022-08-25T08:21:41;11.60;;;7.03;;
59659;SDS011;45534;52.690;6.268;2022-08-25T08:24:07;23.42;;;7.57;;
59659;SDS011;45534;52.690;6.268;2022-08-25T08:26:33;15.02;;;7.32;;
59659;SDS011;45534;52.690;6.268;2022-08-25T08:28:59;19.17;;;8.60;;
59659;SDS011;45534;52.690;6.268;2022-08-25T08:31:25;13.50;;;7.55;;
59659;SDS011;45534;52.690;6.268;2022-08-25T08:33:52;12.85;;;6.97;;
59659;SDS011;45534;52.690;6.268;2022-08-25T08:36:19;10.57;;;6.65;;
59659;SDS011;45534;52.690;6.268;2022-08-25T08:38:46;13.98;;;7.15;;
59659;SDS011;45534;52.690;6.268;2022-08-25T08:41:29;16.55;;;6.38;;
59659;SDS011;45534;52.690;6.268;2022-08-25T08:44:44;33.85;;;6.53;;
59659;SDS011;45534;52.690;6.268;2022-08-25T08:52:49;16.85;;;6.38;;
59659;SDS011;45534;52.690;6.268;2022-08-25T08:55:27;8.02;;;5.60;;
59659;SDS011;45534;52.690;6.268;2022-08-25T08:58:04;10.13;;;5.82;;
59659;SDS011;45534;52.690;6.268;2022-08-25T09:00:53;8.90;;;5.75;;
59659;SDS011;45534;52.690;6.268;2022-08-25T09:06:12;15.27;;;6.88;;
59659;SDS011;45534;52.690;6.268;2022-08-25T09:09:12;8.88;;;5.53;;
59659;SDS011;45534;52.690;6.268;2022-08-25T09:11:47;11.77;;;5.65;;
59659;SDS011;45534;52.690;6.268;2022-08-25T09:17:09;8.25;;;5.22;;
59659;SDS011;45534;52.690;6.268;2022-08-25T09:25:21;8.57;;;4.93;;
59659;SDS011;45534;52.690;6.268;2022-08-25T09:28:06;10.93;;;5.03;;
59659;SDS011;45534;52.690;6.268;2022-08-25T09:33:30;9.75;;;5.35;;
59659;SDS011;45534;52.690;6.268;2022-08-25T09:36:01;8.30;;;4.95;;
59659;SDS011;45534;52.690;6.268;2022-08-25T09:38:28;7.60;;;4.32;;
59659;SDS011;45534;52.690;6.268;2022-08-25T09:40:57;10.63;;;5.10;;
59659;SDS011;45534;52.690;6.268;2022-08-25T09:48:41;6.80;;;4.65;;
59659;SDS011;45534;52.690;6.268;2022-08-25T09:51:27;10.65;;;5.00;;
59659;SDS011;45534;52.690;6.268;2022-08-25T09:56:27;9.20;;;5.25;;
59659;SDS011;45534;52.690;6.268;2022-08-25T09:58:55;13.27;;;5.35;;
59659;SDS011;45534;52.690;6.268;2022-08-25T10:04:51;20.00;;;5.13;;
59659;SDS011;45534;52.690;6.268;2022-08-25T10:07:24;8.38;;;4.75;;
59659;SDS011;45534;52.690;6.268;2022-08-25T10:09:55;15.57;;;4.72;;
59659;SDS011;45534;52.690;6.268;2022-08-25T10:12:28;9.32;;;5.03;;
59659;SDS011;45534;52.690;6.268;2022-08-25T10:15:14;7.47;;;5.32;;
59659;SDS011;45534;52.690;6.268;2022-08-25T10:17:51;10.70;;;4.53;;
59659;SDS011;45534;52.690;6.268;2022-08-25T10:20:20;10.23;;;5.07;;
59659;SDS011;45534;52.690;6.268;2022-08-25T10:22:49;10.77;;;4.03;;
59659;SDS011;45534;52.690;6.268;2022-08-25T10:25:26;7.80;;;5.18;;
59659;SDS011;45534;52.690;6.268;2022-08-25T10:28:19;7.82;;;4.45;;
59659;SDS011;45534;52.690;6.268;2022-08-25T10:31:14;7.18;;;3.53;;
59659;SDS011;45534;52.690;6.268;2022-08-25T10:36:33;10.50;;;4.93;;
59659;SDS011;45534;52.690;6.268;2022-08-25T10:39:13;7.07;;;4.82;;
59659;SDS011;45534;52.690;6.268;2022-08-25T10:42:00;9.52;;;5.00;;
59659;SDS011;45534;52.690;6.268;2022-08-25T10:44:47;7.75;;;4.32;;
59659;SDS011;45534;52.690;6.268;2022-08-25T10:48:00;8.57;;;4.45;;
59659;SDS011;45534;52.690;6.268;2022-08-25T10:50:53;7.23;;;3.87;;
59659;SDS011;45534;52.690;6.268;2022-08-25T10:53:49;5.90;;;4.95;;
59659;SDS011;45534;52.690;6.268;2022-08-25T10:56:30;8.82;;;4.35;;
59659;SDS011;45534;52.690;6.268;2022-08-25T11:04:51;5.95;;;4.20;;
59659;SDS011;45534;52.690;6.268;2022-08-25T11:08:08;6.45;;;4.55;;
59659;SDS011;45534;52.690;6.268;2022-08-25T11:10:32;5.32;;;3.65;;
59659;SDS011;45534;52.690;6.268;2022-08-25T11:13:27;7.15;;;4.25;;
59659;SDS011;45534;52.690;6.268;2022-08-25T11:16:05;6.32;;;4.68;;
59659;SDS011;45534;52.690;6.268;2022-08-25T11:18:43;4.57;;;3.58;;
59659;SDS011;45534;52.690;6.268;2022-08-25T11:21:31;4.85;;;3.65;;
59659;SDS011;45534;52.690;6.268;2022-08-25T11:24:09;9.13;;;4.53;;
59659;SDS011;45534;52.690;6.268;2022-08-25T11:26:42;9.43;;;4.28;;
59659;SDS011;45534;52.690;6.268;2022-08-25T11:29:20;6.57;;;4.05;;
59659;SDS011;45534;52.690;6.268;2022-08-25T11:31:50;5.57;;;4.13;;
59659;SDS011;45534;52.690;6.268;2022-08-25T11:34:20;13.30;;;4.72;;
59659;SDS011;45534;52.690;6.268;2022-08-25T11:37:00;8.27;;;4.32;;
59659;SDS011;45534;52.690;6.268;2022-08-25T11:39:43;6.78;;;3.50;;
59659;SDS011;45534;52.690;6.268;2022-08-25T11:42:28;4.75;;;3.63;;
59659;SDS011;45534;52.690;6.268;2022-08-25T11:48:17;5.55;;;3.25;;
59659;SDS011;45534;52.690;6.268;2022-08-25T11:50:59;15.05;;;3.78;;
59659;SDS011;45534;52.690;6.268;2022-08-25T11:53:40;5.40;;;3.30;;
59659;SDS011;45534;52.690;6.268;2022-08-25T11:56:09;7.35;;;3.92;;
59659;SDS011;45534;52.690;6.268;2022-08-25T11:58:54;7.35;;;3.60;;
59659;SDS011;45534;52.690;6.268;2022-08-25T12:04:11;5.43;;;3.60;;
59659;SDS011;45534;52.690;6.268;2022-08-25T12:07:26;6.43;;;3.60;;
59659;SDS011;45534;52.690;6.268;2022-08-25T12:09:33;6.20;;;3.40;;
59659;SDS011;45534;52.690;6.268;2022-08-25T12:12:37;7.70;;;3.35;;
59659;SDS011;45534;52.690;6.268;2022-08-25T12:15:13;4.75;;;3.60;;
59659;SDS011;45534;52.690;6.268;2022-08-25T12:18:06;4.75;;;3.05;;
59659;SDS011;45534;52.690;6.268;2022-08-25T12:25:57;4.72;;;3.25;;
59659;SDS011;45534;52.690;6.268;2022-08-25T12:36:33;5.25;;;3.67;;
59659;SDS011;45534;52.690;6.268;2022-08-25T12:39:18;7.57;;;3.50;;
59659;SDS011;45534;52.690;6.268;2022-08-25T12:42:22;6.78;;;4.15;;
59659;SDS011;45534;52.690;6.268;2022-08-25T12:45:41;3.20;;;2.85;;
59659;SDS011;45534;52.690;6.268;2022-08-25T12:47:50;4.95;;;3.35;;
59659;SDS011;45534;52.690;6.268;2022-08-25T12:55:37;5.32;;;3.38;;
59659;SDS011;45534;52.690;6.268;2022-08-25T12:58:08;9.55;;;4.68;;
59659;SDS011;45534;52.690;6.268;2022-08-25T13:03:51;5.80;;;3.58;;
59659;SDS011;45534;52.690;6.268;2022-08-25T13:11:24;8.07;;;4.13;;
59659;SDS011;45534;52.690;6.268;2022-08-25T13:16:28;3.60;;;3.13;;
59659;SDS011;45534;52.690;6.268;2022-08-25T13:18:54;5.70;;;4.03;;
59659;SDS011;45534;52.690;6.268;2022-08-25T13:21:30;5.50;;;3.70;;
59659;SDS011;45534;52.690;6.268;2022-08-25T13:24:07;15.75;;;3.47;;
59659;SDS011;45534;52.690;6.268;2022-08-25T13:26:39;4.72;;;3.33;;
59659;SDS011;45534;52.690;6.268;2022-08-25T13:31:33;4.47;;;2.85;;
59659;SDS011;45534;52.690;6.268;2022-08-25T13:34:06;6.93;;;3.85;;
59659;SDS011;45534;52.690;6.268;2022-08-25T13:36:36;7.05;;;3.78;;
59659;SDS011;45534;52.690;6.268;2022-08-25T13:39:29;5.65;;;3.38;;
59659;SDS011;45534;52.690;6.268;2022-08-25T13:41:57;5.32;;;3.50;;
59659;SDS011;45534;52.690;6.268;2022-08-25T13:44:24;5.40;;;3.63;;
59659;SDS011;45534;52.690;6.268;2022-08-25T13:47:09;5.97;;;3.83;;
59659;SDS011;45534;52.690;6.268;2022-08-25T13:49:38;6.53;;;4.18;;
59659;SDS011;45534;52.690;6.268;2022-08-25T13:52:06;3.88;;;3.42;;
59659;SDS011;45534;52.690;6.268;2022-08-25T13:54:39;3.88;;;3.20;;
59659;SDS011;45534;52.690;6.268;2022-08-25T13:57:23;3.60;;;3.30;;
59659;SDS011;45534;52.690;6.268;2022-08-25T14:00:05;5.30;;;4.20;;
59659;SDS011;45534;52.690;6.268;2022-08-25T14:02:39;6.90;;;3.97;;
59659;SDS011;45534;52.690;6.268;2022-08-25T14:05:08;5.82;;;3.75;;
59659;SDS011;45534;52.690;6.268;2022-08-25T14:07:35;4.97;;;3.70;;
59659;SDS011;45534;52.690;6.268;2022-08-25T14:15:25;9.40;;;4.50;;
59659;SDS011;45534;52.690;6.268;2022-08-25T14:18:04;6.35;;;3.70;;
59659;SDS011;45534;52.690;6.268;2022-08-25T14:20:34;3.78;;;3.45;;
59659;SDS011;45534;52.690;6.268;2022-08-25T14:23:10;7.20;;;4.07;;
59659;SDS011;45534;52.690;6.268;2022-08-25T14:25:40;4.57;;;3.63;;
59659;SDS011;45534;52.690;6.268;2022-08-25T14:28:08;5.22;;;3.80;;
59659;SDS011;45534;52.690;6.268;2022-08-25T14:30:45;9.10;;;4.32;;
59659;SDS011;45534;52.690;6.268;2022-08-25T14:33:14;9.55;;;3.40;;
59659;SDS011;45534;52.690;6.268;2022-08-25T14:35:42;4.97;;;3.55;;
59659;SDS011;45534;52.690;6.268;2022-08-25T14:38:11;5.97;;;4.03;;
59659;SDS011;45534;52.690;6.268;2022-08-25T14:40:37;7.43;;;3.60;;
59659;SDS011;45534;52.690;6.268;2022-08-25T14:43:03;6.38;;;3.63;;
59659;SDS011;45534;52.690;6.268;2022-08-25T14:45:30;4.60;;;3.95;;
59659;SDS011;45534;52.690;6.268;2022-08-25T14:47:59;5.80;;;3.85;;
59659;SDS011;45534;52.690;6.268;2022-08-25T14:50:31;3.97;;;3.58;;
59659;SDS011;45534;52.690;6.268;2022-08-25T14:52:57;8.13;;;3.60;;
59659;SDS011;45534;52.690;6.268;2022-08-25T14:55:25;6.05;;;4.30;;
59659;SDS011;45534;52.690;6.268;2022-08-25T14:57:51;4.00;;;3.60;;
59659;SDS011;45534;52.690;6.268;2022-08-25T15:00:17;13.27;;;3.85;;
59659;SDS011;45534;52.690;6.268;2022-08-25T15:02:43;5.80;;;4.35;;
59659;SDS011;45534;52.690;6.268;2022-08-25T15:05:12;6.43;;;4.25;;
59659;SDS011;45534;52.690;6.268;2022-08-25T15:07:40;10.40;;;4.65;;
59659;SDS011;45534;52.690;6.268;2022-08-25T15:10:25;4.30;;;3.72;;
59659;SDS011;45534;52.690;6.268;2022-08-25T15:12:50;4.88;;;3.80;;
59659;SDS011;45534;52.690;6.268;2022-08-25T15:15:16;4.35;;;3.55;;
59659;SDS011;45534;52.690;6.268;2022-08-25T15:17:43;4.53;;;3.58;;
59659;SDS011;45534;52.690;6.268;2022-08-25T15:20:11;6.15;;;4.35;;
59659;SDS011;45534;52.690;6.268;2022-08-25T15:22:37;11.77;;;3.95;;
59659;SDS011;45534;52.690;6.268;2022-08-25T15:25:04;7.10;;;4.13;;
59659;SDS011;45534;52.690;6.268;2022-08-25T15:27:30;4.82;;;3.95;;
59659;SDS011;45534;52.690;6.268;2022-08-25T15:29:56;7.35;;;4.35;;
59659;SDS011;45534;52.690;6.268;2022-08-25T15:32:25;6.35;;;3.70;;
59659;SDS011;45534;52.690;6.268;2022-08-25T15:34:50;5.00;;;4.03;;
59659;SDS011;45534;52.690;6.268;2022-08-25T15:37:16;5.75;;;3.80;;
59659;SDS011;45534;52.690;6.268;2022-08-25T15:39:43;5.18;;;3.97;;
59659;SDS011;45534;52.690;6.268;2022-08-25T15:42:10;8.88;;;4.32;;
59659;SDS011;45534;52.690;6.268;2022-08-25T15:44:36;4.90;;;4.40;;
59659;SDS011;45534;52.690;6.268;2022-08-25T15:47:03;13.05;;;4.90;;
59659;SDS011;45534;52.690;6.268;2022-08-25T15:49:29;6.25;;;4.53;;
59659;SDS011;45534;52.690;6.268;2022-08-25T15:51:55;5.13;;;4.25;;
59659;SDS011;45534;52.690;6.268;2022-08-25T15:54:21;7.35;;;4.28;;
59659;SDS011;45534;52.690;6.268;2022-08-25T15:56:47;8.38;;;4.47;;
59659;SDS011;45534;52.690;6.268;2022-08-25T15:59:13;4.28;;;3.40;;
59659;SDS011;45534;52.690;6.268;2022-08-25T16:01:39;4.50;;;3.90;;
59659;SDS011;45534;52.690;6.268;2022-08-25T16:04:06;6.80;;;4.40;;
59659;SDS011;45534;52.690;6.268;2022-08-25T16:06:31;13.00;;;3.88;;
59659;SDS011;45534;52.690;6.268;2022-08-25T16:08:58;4.15;;;3.30;;
59659;SDS011;45534;52.690;6.268;2022-08-25T16:11:26;5.65;;;4.15;;
59659;SDS011;45534;52.690;6.268;2022-08-25T16:13:54;6.68;;;4.15;;
59659;SDS011;45534;52.690;6.268;2022-08-25T16:16:21;9.05;;;4.65;;
59659;SDS011;45534;52.690;6.268;2022-08-25T16:18:50;4.40;;;4.00;;
59659;SDS011;45534;52.690;6.268;2022-08-25T16:21:18;9.60;;;4.30;;
59659;SDS011;45534;52.690;6.268;2022-08-25T16:23:48;8.35;;;3.33;;